createdAt,value
2022-08-03T00:01:07.829Z,367
2022-08-03T00:02:12.701Z,413
2022-08-03T00:03:08.169Z,388
2022-08-03T00:05:08.578Z,391
2022-08-03T00:06:07.558Z,380
2022-08-03T00:07:08.273Z,382
2022-08-03T00:08:08.309Z,380
2022-08-03T00:09:08.210Z,385
2022-08-03T00:10:07.647Z,402
2022-08-03T00:11:08.115Z,387
2022-08-03T00:12:07.461Z,394
2022-08-03T00:13:07.834Z,392
2022-08-03T00:14:07.583Z,365
2022-08-03T00:15:11.218Z,404
2022-08-03T00:16:08.284Z,388
2022-08-03T00:17:07.454Z,387
2022-08-03T00:18:07.700Z,386
2022-08-03T00:19:07.699Z,392
2022-08-03T00:20:07.627Z,386
2022-08-03T00:21:07.718Z,390
2022-08-03T00:22:07.889Z,399
2022-08-03T00:23:08.047Z,397
2022-08-03T00:24:08.239Z,398
2022-08-03T00:25:08.365Z,389
2022-08-03T00:26:07.484Z,388
2022-08-03T00:27:08.255Z,394
2022-08-03T00:28:08.284Z,396
2022-08-03T00:29:07.742Z,381
2022-08-03T00:30:07.964Z,394
2022-08-03T00:31:08.177Z,387
2022-08-03T00:32:07.639Z,391
2022-08-03T00:33:08.369Z,390
2022-08-03T00:35:10.566Z,383
2022-08-03T00:36:08.412Z,377
2022-08-03T00:37:07.390Z,389
2022-08-03T00:38:08.101Z,391
2022-08-03T00:39:07.988Z,397
2022-08-03T00:41:12.902Z,390
2022-08-03T00:42:07.725Z,389
2022-08-03T00:43:07.469Z,397
2022-08-03T00:44:07.306Z,393
2022-08-03T00:45:08.024Z,387
2022-08-03T00:46:08.020Z,395
2022-08-03T00:47:08.223Z,387
2022-08-03T00:48:29.371Z,401
2022-08-03T00:49:07.775Z,394
2022-08-03T00:50:08.185Z,383
2022-08-03T00:51:08.276Z,395
2022-08-03T00:52:09.559Z,404
2022-08-03T00:53:07.963Z,400
2022-08-03T00:54:07.901Z,393
2022-08-03T00:55:07.943Z,368
2022-08-03T00:56:08.076Z,438
2022-08-03T00:57:07.967Z,398
2022-08-03T00:58:08.159Z,391
2022-08-03T00:59:08.123Z,392
2022-08-03T01:00:08.598Z,395
2022-08-03T01:01:08.389Z,409
2022-08-03T01:03:08.078Z,406
2022-08-03T01:04:08.004Z,405
2022-08-03T01:05:08.229Z,397
2022-08-03T01:06:08.015Z,398
2022-08-03T01:07:10.885Z,394
2022-08-03T01:08:07.233Z,392
2022-08-03T01:09:21.898Z,395
2022-08-03T01:10:08.086Z,381
2022-08-03T01:11:08.253Z,403
2022-08-03T01:12:08.338Z,397
2022-08-03T01:13:13.991Z,396
2022-08-03T01:14:18.270Z,391
2022-08-03T01:15:08.183Z,395
2022-08-03T01:17:07.711Z,403
2022-08-03T01:18:08.321Z,407
2022-08-03T01:19:08.074Z,409
2022-08-03T01:20:08.053Z,400
2022-08-03T01:21:08.306Z,405
2022-08-03T01:22:07.791Z,409
2022-08-03T01:23:07.957Z,411
2022-08-03T01:24:08.115Z,390
2022-08-03T01:25:08.345Z,391
2022-08-03T01:26:08.169Z,401
2022-08-03T01:27:08.157Z,398
2022-08-03T01:28:07.896Z,405
2022-08-03T01:29:08.019Z,408
2022-08-03T01:30:08.443Z,394
2022-08-03T01:31:08.483Z,386
2022-08-03T01:33:02.225Z,393
2022-08-03T01:33:10.879Z,394
2022-08-03T01:35:07.804Z,403
2022-08-03T01:36:07.846Z,401
2022-08-03T01:37:08.080Z,379
2022-08-03T01:38:07.935Z,429
2022-08-03T01:39:07.909Z,411
2022-08-03T01:40:08.304Z,406
2022-08-03T01:41:08.010Z,410
2022-08-03T01:42:07.781Z,402
2022-08-03T01:43:08.392Z,401
2022-08-03T01:44:27.918Z,412
2022-08-03T01:45:07.726Z,405
2022-08-03T01:46:07.730Z,408
2022-08-03T01:47:07.696Z,400
2022-08-03T01:48:07.583Z,402
2022-08-03T01:49:09.266Z,398
2022-08-03T01:50:08.428Z,400
2022-08-03T01:51:08.366Z,390
2022-08-03T01:52:08.080Z,456
2022-08-03T01:53:08.132Z,424
2022-08-03T01:54:08.004Z,420
2022-08-03T01:55:08.261Z,409
2022-08-03T01:56:08.582Z,415
2022-08-03T01:57:07.437Z,402
2022-08-03T01:58:08.238Z,395
2022-08-03T01:59:08.233Z,407
2022-08-03T02:00:09.264Z,404
2022-08-03T02:01:08.178Z,403
2022-08-03T02:03:08.402Z,407
2022-08-03T02:04:08.253Z,393
2022-08-03T02:05:10.715Z,391
2022-08-03T02:07:02.557Z,432
2022-08-03T02:07:09.945Z,403
2022-08-03T02:08:08.111Z,392
2022-08-03T02:09:07.639Z,403
2022-08-03T02:10:08.074Z,395
2022-08-03T02:12:07.636Z,403
2022-08-03T02:13:07.448Z,410
2022-08-03T02:14:07.961Z,412
2022-08-03T02:15:08.425Z,400
2022-08-03T02:16:08.307Z,396
2022-08-03T02:17:07.837Z,412
2022-08-03T02:18:07.668Z,403
2022-08-03T02:19:08.057Z,380
2022-08-03T02:20:07.980Z,451
2022-08-03T02:21:11.105Z,410
2022-08-03T02:22:08.131Z,404
2022-08-03T02:23:08.165Z,401
2022-08-03T02:24:08.501Z,417
2022-08-03T02:25:07.909Z,413
2022-08-03T02:26:07.678Z,404
2022-08-03T02:27:07.682Z,402
2022-08-03T02:28:07.864Z,408
2022-08-03T02:29:08.067Z,410
2022-08-03T02:30:08.384Z,399
2022-08-03T02:31:08.113Z,406
2022-08-03T02:32:07.890Z,411
2022-08-03T02:33:07.798Z,401
2022-08-03T02:34:07.911Z,445
2022-08-03T02:35:08.027Z,405
2022-08-03T02:37:07.451Z,406
2022-08-03T02:38:08.092Z,412
2022-08-03T02:39:08.287Z,396
2022-08-03T02:40:08.956Z,398
2022-08-03T02:41:07.953Z,403
2022-08-03T02:42:07.839Z,401
2022-08-03T02:43:08.240Z,406
2022-08-03T02:44:08.328Z,399
2022-08-03T02:45:08.728Z,397
2022-08-03T02:46:07.789Z,398
2022-08-03T02:47:08.090Z,397
2022-08-03T02:48:07.788Z,404
2022-08-03T02:49:42.679Z,373
2022-08-03T02:50:07.698Z,378
2022-08-03T02:51:07.680Z,362
2022-08-03T02:52:07.857Z,372
2022-08-03T02:53:08.022Z,388
2022-08-03T02:54:07.956Z,391
2022-08-03T02:55:08.158Z,385
2022-08-03T02:56:08.511Z,390
2022-08-03T02:57:08.019Z,389
2022-08-03T02:59:08.221Z,383
2022-08-03T03:00:09.190Z,386
2022-08-03T03:01:08.325Z,395
2022-08-03T03:02:08.327Z,394
2022-08-03T03:03:08.285Z,359
2022-08-03T03:04:08.002Z,382
2022-08-03T03:05:56.074Z,390
2022-08-03T03:06:08.295Z,399
2022-08-03T03:07:08.034Z,403
2022-08-03T03:08:17.662Z,397
2022-08-03T03:10:08.435Z,399
2022-08-03T03:11:07.524Z,395
2022-08-03T03:12:08.228Z,384
2022-08-03T03:13:07.864Z,389
2022-08-03T03:14:08.748Z,395
2022-08-03T03:15:08.016Z,385
2022-08-03T03:16:08.600Z,380
2022-08-03T03:17:07.770Z,385
2022-08-03T03:18:07.647Z,386
2022-08-03T03:19:07.639Z,390
2022-08-03T03:20:08.218Z,394
2022-08-03T03:21:08.058Z,406
2022-08-03T03:22:07.951Z,407
2022-08-03T03:23:07.951Z,394
2022-08-03T03:24:08.281Z,391
2022-08-03T03:25:08.377Z,384
2022-08-03T03:27:07.704Z,391
2022-08-03T03:28:08.121Z,389
2022-08-03T03:29:08.319Z,378
2022-08-03T03:30:08.798Z,376
2022-08-03T03:31:08.021Z,381
2022-08-03T03:32:09.297Z,383
2022-08-03T03:33:07.840Z,385
2022-08-03T03:34:08.289Z,384
2022-08-03T03:35:08.571Z,389
2022-08-03T03:36:07.592Z,387
2022-08-03T03:37:07.554Z,390
2022-08-03T03:39:15.427Z,386
2022-08-03T03:40:08.218Z,391
2022-08-03T03:41:07.992Z,402
2022-08-03T03:42:27.046Z,389
2022-08-03T03:43:08.347Z,395
2022-08-03T03:44:07.958Z,414
2022-08-03T03:46:07.979Z,409
2022-08-03T03:47:07.908Z,405
2022-08-03T03:48:07.599Z,400
2022-08-03T03:49:07.831Z,412
2022-08-03T03:50:08.045Z,405
2022-08-03T03:51:08.044Z,414
2022-08-03T03:52:07.758Z,413
2022-08-03T03:53:09.266Z,418
2022-08-03T03:54:08.411Z,414
2022-08-03T03:55:07.991Z,431
2022-08-03T03:56:08.351Z,428
2022-08-03T03:57:08.864Z,426
2022-08-03T03:58:08.405Z,424
2022-08-03T03:59:07.736Z,420
2022-08-03T04:00:08.608Z,419
2022-08-03T04:01:07.810Z,424
2022-08-03T04:02:08.193Z,417
2022-08-03T04:03:08.392Z,413
2022-08-03T04:04:08.399Z,408
2022-08-03T04:05:08.202Z,429
2022-08-03T04:06:08.410Z,424
2022-08-03T04:07:08.215Z,411
2022-08-03T04:08:07.803Z,416
2022-08-03T04:09:08.391Z,412
2022-08-03T04:10:14.709Z,423
2022-08-03T04:12:07.663Z,425
2022-08-03T04:13:08.123Z,427
2022-08-03T04:14:08.126Z,429
2022-08-03T04:15:08.436Z,422
2022-08-03T04:16:07.735Z,425
2022-08-03T04:17:07.991Z,418
2022-08-03T04:18:08.003Z,416
2022-08-03T04:19:08.240Z,415
2022-08-03T04:20:08.625Z,412
2022-08-03T04:21:07.642Z,419
2022-08-03T04:22:07.767Z,412
2022-08-03T04:23:13.630Z,411
2022-08-03T04:24:07.864Z,415
2022-08-03T04:25:08.512Z,413
2022-08-03T04:26:07.864Z,415
2022-08-03T04:28:29.713Z,417
2022-08-03T04:29:07.827Z,407
2022-08-03T04:30:08.396Z,424
2022-08-03T04:31:08.209Z,421
2022-08-03T04:32:08.251Z,426
2022-08-03T04:33:08.536Z,422
2022-08-03T04:34:08.732Z,421
2022-08-03T04:35:08.313Z,432
2022-08-03T04:36:07.685Z,427
2022-08-03T04:37:07.811Z,418
2022-08-03T04:38:08.007Z,422
2022-08-03T04:39:07.618Z,418
2022-08-03T04:40:07.857Z,423
2022-08-03T04:41:07.894Z,421
2022-08-03T04:42:17.047Z,417
2022-08-03T04:43:07.847Z,424
2022-08-03T04:44:08.122Z,420
2022-08-03T04:45:08.559Z,426
2022-08-03T04:46:07.828Z,430
2022-08-03T04:47:07.761Z,427
2022-08-03T04:48:07.822Z,414
2022-08-03T04:49:07.816Z,421
2022-08-03T04:50:12.216Z,423
2022-08-03T04:51:08.391Z,424
2022-08-03T04:52:07.609Z,422
2022-08-03T04:53:07.673Z,431
2022-08-03T04:54:07.906Z,434
2022-08-03T04:55:08.116Z,426
2022-08-03T04:56:07.943Z,420
2022-08-03T04:57:07.625Z,429
2022-08-03T04:58:08.215Z,411
2022-08-03T04:59:08.398Z,457
2022-08-03T05:00:09.503Z,444
2022-08-03T05:01:07.816Z,441
2022-08-03T05:02:08.155Z,440
2022-08-03T05:03:20.414Z,443
2022-08-03T05:04:07.605Z,436
2022-08-03T05:05:08.122Z,435
2022-08-03T05:06:11.200Z,437
2022-08-03T05:07:11.728Z,440
2022-08-03T05:08:11.172Z,438
2022-08-03T05:09:07.690Z,448
2022-08-03T05:10:11.742Z,450
2022-08-03T05:11:08.000Z,441
2022-08-03T05:12:08.040Z,440
2022-08-03T05:13:07.814Z,433
2022-08-03T05:14:07.969Z,431
2022-08-03T05:15:08.207Z,453
2022-08-03T05:16:07.868Z,445
2022-08-03T05:17:08.094Z,434
2022-08-03T05:18:13.397Z,428
2022-08-03T05:19:08.144Z,432
2022-08-03T05:20:08.535Z,435
2022-08-03T05:22:08.054Z,433
2022-08-03T05:23:08.306Z,428
2022-08-03T05:24:07.682Z,412
2022-08-03T05:25:08.047Z,409
2022-08-03T05:26:08.298Z,396
2022-08-03T05:27:07.538Z,443
2022-08-03T05:28:08.482Z,423
2022-08-03T05:29:08.720Z,430
2022-08-03T05:30:29.663Z,415
2022-08-03T05:31:12.579Z,405
2022-08-03T05:33:08.311Z,415
2022-08-03T05:34:08.431Z,421
2022-08-03T05:36:03.020Z,419
2022-08-03T05:37:09.147Z,423
2022-08-03T05:38:09.222Z,418
2022-08-03T05:39:07.954Z,388
2022-08-03T05:40:08.473Z,444
2022-08-03T05:41:22.724Z,420
2022-08-03T05:42:08.353Z,416
2022-08-03T05:43:07.897Z,410
2022-08-03T05:44:07.919Z,396
2022-08-03T05:45:08.308Z,399
2022-08-03T05:46:12.815Z,387
2022-08-03T05:47:07.542Z,395
2022-08-03T05:48:07.474Z,400
2022-08-03T05:49:08.223Z,395
2022-08-03T05:50:08.665Z,388
2022-08-03T05:51:08.091Z,393
2022-08-03T05:52:13.093Z,383
2022-08-03T05:53:08.231Z,371
2022-08-03T05:54:07.935Z,404
2022-08-03T05:56:13.942Z,391
2022-08-03T05:57:07.908Z,384
2022-08-03T05:58:07.722Z,380
2022-08-03T05:59:35.765Z,382
2022-08-03T06:00:08.952Z,378
2022-08-03T06:02:07.858Z,376
2022-08-03T06:03:08.230Z,375
2022-08-03T06:04:08.655Z,368
2022-08-03T06:05:08.365Z,363
2022-08-03T06:06:07.869Z,361
2022-08-03T06:07:08.329Z,378
2022-08-03T06:08:07.481Z,373
2022-08-03T06:09:08.046Z,363
2022-08-03T06:10:37.165Z,368
2022-08-03T06:11:08.530Z,355
2022-08-03T06:12:11.194Z,360
2022-08-03T06:13:08.096Z,356
2022-08-03T06:14:07.994Z,362
2022-08-03T06:15:08.161Z,356
2022-08-03T06:16:08.104Z,355
2022-08-03T06:17:08.044Z,363
2022-08-03T06:18:08.466Z,365
2022-08-03T06:19:08.114Z,371
2022-08-03T06:22:08.219Z,369
2022-08-03T06:23:08.029Z,375
2022-08-03T06:24:08.633Z,380
2022-08-03T06:25:11.301Z,379
2022-08-03T06:26:07.942Z,370
2022-08-03T06:29:08.621Z,372
2022-08-03T06:30:08.854Z,375
2022-08-03T06:31:08.533Z,372
2022-08-03T06:32:08.043Z,388
2022-08-03T06:33:08.445Z,345
2022-08-03T06:34:32.543Z,344
2022-08-03T06:35:08.094Z,362
2022-08-03T06:36:08.407Z,359
2022-08-03T06:37:07.912Z,370
2022-08-03T06:38:08.582Z,363
2022-08-03T06:39:08.373Z,371
2022-08-03T06:40:08.553Z,363
2022-08-03T06:41:07.581Z,355
2022-08-03T06:42:07.478Z,365
2022-08-03T06:43:12.335Z,373
2022-08-03T06:45:08.358Z,392
2022-08-03T06:46:08.132Z,362
2022-08-03T06:47:08.580Z,364
2022-08-03T06:48:08.164Z,357
2022-08-03T06:49:08.474Z,356
2022-08-03T06:50:17.141Z,365
2022-08-03T06:51:07.939Z,379
2022-08-03T06:52:08.526Z,382
2022-08-03T06:53:08.207Z,380
2022-08-03T06:54:08.214Z,382
2022-08-03T06:55:08.854Z,380
2022-08-03T06:56:07.898Z,379
2022-08-03T06:57:08.431Z,361
2022-08-03T06:58:07.863Z,385
2022-08-03T06:59:08.456Z,372
2022-08-03T07:00:12.131Z,370
2022-08-03T07:01:08.148Z,366
2022-08-03T07:02:08.109Z,371
2022-08-03T07:03:08.478Z,378
2022-08-03T07:05:08.830Z,369
2022-08-03T07:06:08.602Z,357
2022-08-03T07:07:08.437Z,374
2022-08-03T07:08:08.117Z,383
2022-08-03T07:09:09.022Z,379
2022-08-03T07:10:07.775Z,373
2022-08-03T07:11:07.993Z,371
2022-08-03T07:12:07.944Z,374
2022-08-03T07:13:08.182Z,363
2022-08-03T07:14:08.333Z,368
2022-08-03T07:15:08.808Z,375
2022-08-03T07:16:07.708Z,366
2022-08-03T07:17:11.784Z,365
2022-08-03T07:18:07.806Z,368
2022-08-03T07:19:07.904Z,356
2022-08-03T07:20:08.137Z,360
2022-08-03T07:21:08.563Z,336
2022-08-03T07:22:07.756Z,395
2022-08-03T07:23:08.057Z,365
2022-08-03T07:24:07.863Z,361
2022-08-03T07:25:08.486Z,349
2022-08-03T07:26:08.366Z,355
2022-08-03T07:27:08.233Z,354
2022-08-03T07:28:08.684Z,363
2022-08-03T07:29:15.141Z,369
2022-08-03T07:30:08.329Z,345
2022-08-03T07:31:08.333Z,343
2022-08-03T07:32:08.270Z,345
2022-08-03T07:33:08.483Z,359
2022-08-03T07:34:07.860Z,385
2022-08-03T07:35:08.753Z,352
2022-08-03T07:36:08.041Z,363
2022-08-03T07:37:08.221Z,373
2022-08-03T07:38:08.439Z,375
2022-08-03T07:39:16.676Z,370
2022-08-03T07:40:08.393Z,359
2022-08-03T07:41:08.326Z,358
2022-08-03T07:42:08.208Z,356
2022-08-03T07:43:08.270Z,366
2022-08-03T07:44:08.472Z,360
2022-08-03T07:45:09.074Z,349
2022-08-03T07:46:11.433Z,350
2022-08-03T07:47:22.233Z,377
2022-08-03T07:48:12.815Z,375
2022-08-03T07:49:11.524Z,379
2022-08-03T07:50:11.497Z,364
2022-08-03T07:51:11.283Z,369
2022-08-03T07:52:08.325Z,371
2022-08-03T07:53:08.209Z,362
2022-08-03T07:54:08.500Z,351
2022-08-03T07:55:08.220Z,344
2022-08-03T07:56:11.371Z,349
2022-08-03T07:57:08.206Z,355
2022-08-03T07:58:08.408Z,339
2022-08-03T07:59:08.433Z,401
2022-08-03T08:00:08.390Z,380
2022-08-03T08:01:08.951Z,367
2022-08-03T08:02:07.693Z,355
2022-08-03T08:03:08.591Z,352
2022-08-03T08:04:07.966Z,356
2022-08-03T08:05:08.713Z,351
